Time;durP1;ratioP1;P1;durP2;ratioP2;P2;SDS_P1;SDS_P2;PMS_P1;PMS_P2;Temp;Humidity;BMP_temperature;BMP_pressure;BME280_temperature;BME280_humidity;BME280_pressure;Samples;Min_cycle;Max_cycle;Signal;HPM_P1;HPM_P2
2021/03/04 00:00:35;;;;;;;9.90;1.88;;;22.70;99.90;;;;;;6306596;22;20003;-63
2021/03/04 00:03:04;;;;;;;8.13;0.85;;;22.80;99.90;;;;;;6306828;22;20088;-63
2021/03/04 00:05:32;;;;;;;7.25;1.45;;;22.80;99.90;;;;;;6329620;22;20014;-64
2021/03/04 00:08:00;;;;;;;5.15;1.52;;;22.40;99.90;;;;;;6305564;22;20006;-64
2021/03/04 00:10:31;;;;;;;5.00;0.88;;;22.30;99.90;;;;;;6304109;22;20425;-64
2021/03/04 00:12:58;;;;;;;3.90;0.70;;;22.40;99.90;;;;;;6304159;22;20445;-64
2021/03/04 00:15:28;;;;;;;4.00;0.82;;;22.90;99.90;;;;;;6303430;22;20357;-64
2021/03/04 00:17:55;;;;;;;5.05;0.80;;;23.10;99.90;;;;;;6302695;22;20010;-64
2021/03/04 00:20:31;;;;;;;4.90;0.95;;;23.40;99.90;;;;;;6304496;22;20090;-64
2021/03/04 00:22:59;;;;;;;8.38;1.13;;;23.70;99.90;;;;;;6304417;22;20075;-64
2021/03/04 00:25:29;;;;;;;6.60;1.05;;;23.80;99.90;;;;;;6307203;22;20064;-64
2021/03/04 00:27:56;;;;;;;4.97;0.95;;;24.00;99.90;;;;;;6308698;22;20004;-64
2021/03/04 00:30:25;;;;;;;7.60;0.80;;;24.10;99.90;;;;;;6307301;22;20151;-64
2021/03/04 00:32:52;;;;;;;5.97;1.23;;;24.10;99.90;;;;;;6307546;22;20023;-64
2021/03/04 00:35:19;;;;;;;7.60;0.70;;;23.90;99.90;;;;;;6307725;22;20133;-64
2021/03/04 00:37:47;;;;;;;3.67;0.85;;;24.00;99.90;;;;;;6307952;22;19995;-64
2021/03/04 00:40:18;;;;;;;6.82;1.52;;;24.10;99.90;;;;;;6307952;22;20086;-65
2021/03/04 00:42:45;;;;;;;6.70;1.02;;;24.30;99.90;;;;;;6332044;22;20004;-63
2021/03/04 00:45:18;;;;;;;10.27;1.38;;;24.30;99.90;;;;;;6321074;22;20088;-63
2021/03/04 00:47:46;;;;;;;6.15;0.85;;;24.70;99.90;;;;;;6303996;22;20088;-64
2021/03/04 00:50:14;;;;;;;4.47;0.90;;;24.80;99.90;;;;;;6329166;22;20072;-64
2021/03/04 00:52:41;;;;;;;5.05;0.82;;;25.20;99.90;;;;;;6328187;22;20019;-64
2021/03/04 00:55:09;;;;;;;5.72;0.93;;;25.10;99.90;;;;;;6306610;22;20007;-64
2021/03/04 00:57:36;;;;;;;5.93;0.98;;;25.60;99.90;;;;;;6307538;22;20003;-64
2021/03/04 01:00:07;;;;;;;4.75;1.23;;;25.50;99.90;;;;;;6307571;22;20060;-65
2021/03/04 01:02:35;;;;;;;4.43;1.20;;;25.50;99.90;;;;;;6309677;22;20004;-66
2021/03/04 01:05:04;;;;;;;7.05;0.63;;;25.50;99.50;;;;;;6308500;22;20008;-66
2021/03/04 01:07:32;;;;;;;5.32;0.85;;;25.80;99.90;;;;;;6308115;22;19995;-65
2021/03/04 01:09:59;;;;;;;4.15;0.93;;;26.00;99.90;;;;;;6307679;22;20125;-65
2021/03/04 01:12:27;;;;;;;4.40;1.10;;;26.30;98.30;;;;;;6307839;22;20010;-65
2021/03/04 01:14:54;;;;;;;4.38;0.95;;;26.50;99.30;;;;;;6308322;22;20000;-65
2021/03/04 01:17:22;;;;;;;5.28;0.50;;;26.50;99.40;;;;;;6314023;22;20314;-65
2021/03/04 01:19:49;;;;;;;2.13;0.50;;;26.40;98.40;;;;;;6314964;22;19999;-65
2021/03/04 01:22:17;;;;;;;4.63;0.75;;;26.60;98.10;;;;;;6348948;22;20004;-65
2021/03/04 01:24:44;;;;;;;5.20;1.00;;;26.60;98.10;;;;;;6318003;22;20089;-65
2021/03/04 01:27:11;;;;;;;5.68;0.93;;;26.60;98.00;;;;;;6316967;22;20025;-65
2021/03/04 01:29:39;;;;;;;5.43;0.70;;;26.80;97.60;;;;;;6313459;22;19992;-66
2021/03/04 01:32:06;;;;;;;5.07;0.55;;;26.50;97.20;;;;;;6343166;22;20007;-66
2021/03/04 01:34:34;;;;;;;6.93;1.08;;;26.40;98.20;;;;;;6321290;22;20007;-65
2021/03/04 01:37:01;;;;;;;3.08;0.75;;;26.90;97.00;;;;;;6321235;22;20003;-66
2021/03/04 01:39:28;;;;;;;3.70;0.80;;;27.00;97.40;;;;;;6320347;22;20003;-66
2021/03/04 01:41:56;;;;;;;3.53;0.80;;;27.00;96.80;;;;;;6321198;22;20031;-65
2021/03/04 01:44:23;;;;;;;4.00;0.90;;;27.10;97.20;;;;;;6320201;22;20048;-66
2021/03/04 01:46:51;;;;;;;4.10;0.73;;;27.30;96.60;;;;;;6315718;22;20039;-66
2021/03/04 01:49:18;;;;;;;2.90;1.00;;;27.40;95.30;;;;;;6315547;22;20020;-66
2021/03/04 01:51:46;;;;;;;4.78;0.88;;;27.50;97.20;;;;;;6318971;22;20007;-65
2021/03/04 01:54:13;;;;;;;4.00;0.90;;;27.30;95.90;;;;;;6327145;22;20030;-68
2021/03/04 01:56:40;;;;;;;7.28;1.33;;;27.60;96.50;;;;;;6332546;22;19995;-68
2021/03/04 01:59:07;;;;;;;4.78;0.80;;;27.50;94.20;;;;;;6306921;22;20030;-68
2021/03/04 02:02:08;;;;;;;6.60;1.00;;;26.70;94.50;;;;;;6307384;22;20003;-68
2021/03/04 02:04:35;;;;;;;7.35;0.90;;;26.30;95.10;;;;;;6305797;22;20094;-68
2021/03/04 02:07:16;;;;;;;5.65;0.95;;;25.90;94.90;;;;;;6307369;22;20011;-67
2021/03/04 02:09:53;;;;;;;5.55;1.08;;;26.20;97.20;;;;;;6307006;22;20441;-67
2021/03/04 02:12:51;;;;;;;3.97;0.98;;;26.40;97.40;;;;;;6307172;22;20113;-68
2021/03/04 02:15:27;;;;;;;6.15;1.40;;;26.80;95.20;;;;;;6275127;22;20360;-67
2021/03/04 02:17:56;;;;;;;3.55;0.95;;;27.00;95.90;;;;;;6307515;22;20011;-68
2021/03/04 02:20:34;;;;;;;3.90;1.08;;;27.60;93.40;;;;;;6306979;22;20003;-67
2021/03/04 02:23:33;;;;;;;5.88;0.98;;;27.50;93.30;;;;;;6306871;22;20007;-67
2021/03/04 02:26:07;;;;;;;2.92;0.90;;;27.20;93.10;;;;;;6307017;22;20498;-67
2021/03/04 02:28:34;;;;;;;8.25;1.27;;;27.70;94.40;;;;;;6306523;22;20075;-69
2021/03/04 02:31:07;;;;;;;4.75;1.13;;;28.20;93.00;;;;;;6307216;22;19999;-68
2021/03/04 02:33:35;;;;;;;2.47;0.75;;;27.10;92.30;;;;;;6306683;22;20007;-67
2021/03/04 02:36:04;;;;;;;5.30;1.58;;;26.50;93.10;;;;;;6306509;22;20003;-67
2021/03/04 02:38:31;;;;;;;4.60;1.63;;;26.80;94.50;;;;;;6305611;22;19999;-67
2021/03/04 02:41:00;;;;;;;2.47;1.10;;;26.80;93.50;;;;;;6306744;22;20074;-67
2021/03/04 02:43:29;;;;;;;3.10;1.35;;;27.30;94.10;;;;;;6330364;22;20026;-67
2021/03/04 02:45:57;;;;;;;4.93;1.08;;;27.70;94.40;;;;;;6306399;22;20023;-67
2021/03/04 02:48:26;;;;;;;5.68;1.38;;;27.80;92.20;;;;;;6305913;22;19999;-67
2021/03/04 02:50:55;;;;;;;3.83;1.10;;;27.40;91.80;;;;;;6306792;22;20007;-68
2021/03/04 02:53:24;;;;;;;4.18;1.02;;;27.30;91.30;;;;;;6306160;22;19996;-67
2021/03/04 02:55:52;;;;;;;4.85;1.33;;;27.20;90.90;;;;;;6306383;22;20014;-68
2021/03/04 02:58:20;;;;;;;9.38;1.80;;;27.60;90.40;;;;;;6305290;22;20000;-67
2021/03/04 03:00:49;;;;;;;5.15;1.65;;;27.50;90.10;;;;;;6330906;22;20144;-67
2021/03/04 03:03:18;;;;;;;4.53;1.20;;;27.00;90.70;;;;;;6304009;22;20030;-67
2021/03/04 03:05:46;;;;;;;5.10;1.35;;;27.20;91.30;;;;;;6306261;22;20003;-68
2021/03/04 03:08:16;;;;;;;5.00;1.35;;;27.50;89.80;;;;;;6305287;22;20003;-68
2021/03/04 03:10:53;;;;;;;5.75;1.23;;;27.40;90.20;;;;;;6329553;22;20115;-68
2021/03/04 03:13:21;;;;;;;5.25;1.15;;;27.50;89.60;;;;;;6305497;22;20090;-67
2021/03/04 03:15:51;;;;;;;4.70;1.50;;;26.80;90.00;;;;;;6304879;22;20026;-67
2021/03/04 03:18:18;;;;;;;3.42;1.25;;;26.70;90.40;;;;;;6306298;22;20006;-68
2021/03/04 03:20:46;;;;;;;4.18;1.42;;;27.20;90.80;;;;;;6306462;22;20015;-67
2021/03/04 03:23:13;;;;;;;9.77;1.83;;;27.60;90.60;;;;;;6305858;22;20010;-68
2021/03/04 03:25:40;;;;;;;6.00;1.63;;;28.00;89.20;;;;;;6306297;22;20010;-67
2021/03/04 03:28:08;;;;;;;4.00;1.65;;;27.30;89.70;;;;;;6305355;22;20003;-68
2021/03/04 03:30:35;;;;;;;5.53;1.58;;;27.40;89.60;;;;;;6303841;22;20003;-67
2021/03/04 03:33:05;;;;;;;3.10;1.13;;;27.20;90.00;;;;;;6305880;22;20025;-68
2021/03/04 03:35:36;;;;;;;5.90;1.58;;;27.50;90.40;;;;;;6302784;22;20023;-69
2021/03/04 03:38:05;;;;;;;4.40;1.58;;;27.60;89.60;;;;;;6327261;22;20003;-68
2021/03/04 03:40:35;;;;;;;6.43;1.73;;;27.60;88.80;;;;;;6303197;22;19995;-68
2021/03/04 03:43:10;;;;;;;5.63;1.52;;;27.10;90.40;;;;;;6303696;22;20003;-68
2021/03/04 03:45:45;;;;;;;7.88;1.70;;;27.20;90.80;;;;;;6303560;22;20056;-68
2021/03/04 03:48:15;;;;;;;4.05;1.23;;;26.90;91.30;;;;;;6334263;22;20029;-65
2021/03/04 03:50:45;;;;;;;7.13;1.52;;;27.20;90.20;;;;;;6329809;22;20004;-65
2021/03/04 03:53:17;;;;;;;5.93;1.30;;;27.60;90.30;;;;;;6320414;22;19996;-65
2021/03/04 03:55:50;;;;;;;4.68;1.40;;;27.70;90.30;;;;;;6328170;22;20067;-66
2021/03/04 03:58:19;;;;;;;9.53;2.70;;;27.30;89.40;;;;;;6331306;22;19995;-65
2021/03/04 04:00:48;;;;;;;4.03;1.30;;;27.10;90.00;;;;;;6333240;22;20046;-64
2021/03/04 04:03:16;;;;;;;5.47;1.60;;;26.90;90.10;;;;;;6332865;22;20034;-63
2021/03/04 04:05:43;;;;;;;4.50;1.30;;;27.50;90.80;;;;;;6334334;22;19987;-62
2021/03/04 04:08:10;;;;;;;5.45;1.75;;;27.80;87.90;;;;;;6334062;22;19991;-63
2021/03/04 04:10:39;;;;;;;5.72;1.83;;;27.50;88.60;;;;;;6360817;22;20001;-63
2021/03/04 04:13:06;;;;;;;5.35;1.83;;;27.60;90.10;;;;;;6336251;22;19992;-64
2021/03/04 04:15:34;;;;;;;5.68;1.60;;;27.10;89.40;;;;;;6335702;22;20057;-63
2021/03/04 04:18:02;;;;;;;6.10;1.58;;;27.30;91.00;;;;;;6336116;22;19998;-63
2021/03/04 04:20:30;;;;;;;4.85;2.00;;;27.70;89.30;;;;;;6336173;22;20086;-64
2021/03/04 04:22:59;;;;;;;5.55;1.80;;;27.20;89.40;;;;;;6336767;22;20029;-64
2021/03/04 04:25:27;;;;;;;5.15;1.70;;;27.00;89.10;;;;;;6336477;22;20019;-64
2021/03/04 04:27:56;;;;;;;7.03;1.98;;;26.90;90.20;;;;;;6337522;22;19988;-64
2021/03/04 04:30:25;;;;;;;6.00;2.10;;;27.00;91.50;;;;;;6337381;22;19984;-63
2021/03/04 04:32:53;;;;;;;3.28;1.40;;;27.40;90.30;;;;;;6336747;22;19991;-64
2021/03/04 04:35:20;;;;;;;5.13;1.10;;;27.50;91.30;;;;;;6337180;22;19994;-63
2021/03/04 04:37:48;;;;;;;5.53;1.00;;;27.40;93.90;;;;;;6337410;22;19984;-65
2021/03/04 04:40:15;;;;;;;8.70;1.67;;;27.20;95.10;;;;;;6337228;22;20026;-63
2021/03/04 04:42:43;;;;;;;6.20;1.70;;;26.80;95.50;;;;;;6336005;22;19987;-63
2021/03/04 04:45:10;;;;;;;5.72;1.30;;;27.00;96.30;;;;;;6335863;22;20001;-63
2021/03/04 04:47:38;;;;;;;13.13;1.20;;;26.90;96.50;;;;;;6362250;22;20010;-64
2021/03/04 04:50:06;;;;;;;4.53;1.05;;;27.00;97.60;;;;;;6336453;22;20079;-63
2021/03/04 04:52:34;;;;;;;5.43;1.20;;;26.60;97.90;;;;;;6336227;22;20014;-63
2021/03/04 04:55:01;;;;;;;6.32;1.30;;;26.40;98.30;;;;;;6334913;22;19999;-63
2021/03/04 04:57:28;;;;;;;11.32;1.95;;;26.20;98.80;;;;;;6336127;22;20531;-64
2021/03/04 04:59:55;;;;;;;8.07;1.40;;;26.40;98.50;;;;;;6333814;22;19990;-63
2021/03/04 05:02:23;;;;;;;4.55;1.40;;;26.60;98.80;;;;;;6334730;22;20057;-64
2021/03/04 05:04:50;;;;;;;5.53;1.20;;;26.50;98.70;;;;;;6333607;22;20000;-62
2021/03/04 05:07:17;;;;;;;4.57;1.10;;;26.40;98.60;;;;;;6358736;22;20007;-63
2021/03/04 05:09:44;;;;;;;6.30;1.35;;;26.40;98.60;;;;;;6329818;22;20003;-63
2021/03/04 05:12:12;;;;;;;6.15;1.10;;;26.40;99.20;;;;;;6330809;22;19999;-63
2021/03/04 05:14:39;;;;;;;6.28;1.45;;;26.40;99.80;;;;;;6333363;22;20013;-63
2021/03/04 05:17:06;;;;;;;6.38;1.38;;;26.20;99.70;;;;;;6333060;22;20007;-64
2021/03/04 05:19:34;;;;;;;6.50;0.95;;;26.20;99.90;;;;;;6334268;22;19984;-63
2021/03/04 05:22:01;;;;;;;5.28;1.20;;;26.00;99.90;;;;;;6334681;22;19987;-62
2021/03/04 05:24:31;;;;;;;6.28;1.40;;;25.90;99.90;;;;;;6332282;22;20018;-63
2021/03/04 05:26:58;;;;;;;4.43;1.00;;;25.80;99.90;;;;;;6333559;22;20004;-63
2021/03/04 05:29:26;;;;;;;8.27;1.55;;;25.60;99.90;;;;;;6333673;22;19983;-64
2021/03/04 05:31:53;;;;;;;5.57;1.45;;;25.60;99.90;;;;;;6331785;22;19987;-63
2021/03/04 05:34:20;;;;;;;7.95;1.33;;;25.70;99.90;;;;;;6328658;22;20003;-63
2021/03/04 05:36:48;;;;;;;5.70;1.40;;;25.70;99.90;;;;;;6356376;22;20018;-63
2021/03/04 05:39:15;;;;;;;7.78;1.63;;;25.60;99.90;;;;;;6333754;22;19996;-62
2021/03/04 05:41:43;;;;;;;6.07;1.98;;;25.50;99.90;;;;;;6329154;22;19988;-63
2021/03/04 05:44:11;;;;;;;9.88;1.75;;;25.60;99.90;;;;;;6334360;22;20464;-62
2021/03/04 05:46:39;;;;;;;7.88;1.20;;;25.70;99.90;;;;;;6334768;22;19991;-63
2021/03/04 05:49:11;;;;;;;8.40;1.73;;;25.60;99.90;;;;;;6334073;22;20043;-64
2021/03/04 05:51:43;;;;;;;6.75;1.40;;;25.50;99.90;;;;;;6332984;22;20006;-64
2021/03/04 05:54:15;;;;;;;7.32;1.27;;;25.30;99.90;;;;;;6332908;22;20064;-62
2021/03/04 05:56:43;;;;;;;6.75;1.35;;;25.30;99.90;;;;;;6333967;22;19992;-62
2021/03/04 05:59:11;;;;;;;6.85;1.48;;;25.20;99.90;;;;;;6333992;22;20003;-64
2021/03/04 06:01:39;;;;;;;8.50;1.63;;;25.20;99.90;;;;;;6333662;22;19999;-64
2021/03/04 06:04:06;;;;;;;7.05;1.40;;;25.00;99.90;;;;;;6333133;22;19999;-64
2021/03/04 06:06:34;;;;;;;10.93;2.38;;;25.00;99.90;;;;;;6334022;22;20006;-64
2021/03/04 06:09:02;;;;;;;7.47;2.13;;;25.10;99.90;;;;;;6335638;22;19998;-64
2021/03/04 06:11:30;;;;;;;5.82;1.65;;;25.10;99.90;;;;;;6333075;22;20045;-64
2021/03/04 06:13:58;;;;;;;9.05;1.60;;;25.10;99.90;;;;;;6333236;22;19999;-64
2021/03/04 06:16:26;;;;;;;8.77;1.48;;;25.10;99.90;;;;;;6333738;22;20003;-64
2021/03/04 06:18:53;;;;;;;7.53;1.80;;;25.10;99.90;;;;;;6332138;22;19992;-64
2021/03/04 06:21:24;;;;;;;8.50;1.65;;;25.10;99.90;;;;;;6332534;22;20011;-64
2021/03/04 06:23:53;;;;;;;6.32;1.20;;;25.00;99.90;;;;;;6333197;22;20019;-64
2021/03/04 06:26:25;;;;;;;4.93;1.50;;;25.00;99.90;;;;;;6333933;22;20011;-64
2021/03/04 06:28:52;;;;;;;6.80;1.25;;;25.00;99.90;;;;;;6334549;22;19991;-63
2021/03/04 06:31:23;;;;;;;9.05;1.60;;;24.80;99.90;;;;;;6334394;22;19994;-63
2021/03/04 06:33:50;;;;;;;9.18;1.30;;;24.80;99.90;;;;;;6334349;22;19987;-62
2021/03/04 06:36:19;;;;;;;5.22;1.20;;;24.80;99.90;;;;;;6334114;22;19987;-62
2021/03/04 06:38:56;;;;;;;8.10;1.75;;;24.70;99.90;;;;;;6334297;22;20014;-63
2021/03/04 06:41:24;;;;;;;7.30;1.83;;;24.70;99.90;;;;;;6333467;22;19991;-63
2021/03/04 06:44:03;;;;;;;3.97;1.75;;;24.70;99.90;;;;;;6332926;22;19999;-62
2021/03/04 06:46:31;;;;;;;5.20;1.45;;;24.50;99.90;;;;;;6334476;22;19994;-62
2021/03/04 06:48:58;;;;;;;8.55;1.48;;;24.50;99.90;;;;;;6334310;22;20007;-62
2021/03/04 06:51:25;;;;;;;6.57;1.77;;;24.50;99.90;;;;;;6334474;22;19991;-63
2021/03/04 06:53:54;;;;;;;5.50;1.52;;;24.50;99.90;;;;;;6332200;22;20002;-63
2021/03/04 06:56:30;;;;;;;5.90;1.27;;;24.40;99.90;;;;;;6334903;22;20041;-63
2021/03/04 06:59:02;;;;;;;4.60;1.13;;;24.40;99.90;;;;;;6358189;22;19996;-63
2021/03/04 07:01:30;;;;;;;7.47;1.48;;;24.40;99.90;;;;;;6333674;22;20003;-63
2021/03/04 07:03:57;;;;;;;10.77;2.50;;;24.40;99.90;;;;;;6332835;22;20003;-62
2021/03/04 07:06:26;;;;;;;11.45;2.60;;;24.40;99.90;;;;;;6334464;22;20036;-63
2021/03/04 07:08:54;;;;;;;9.38;1.80;;;24.30;99.90;;;;;;6335245;22;20055;-63
2021/03/04 07:11:24;;;;;;;7.07;2.13;;;24.30;99.90;;;;;;6335487;22;19991;-63
2021/03/04 07:13:52;;;;;;;8.50;1.80;;;24.20;99.90;;;;;;6334934;22;19987;-62
2021/03/04 07:16:20;;;;;;;9.57;2.00;;;24.20;99.90;;;;;;6335580;22;19990;-62
2021/03/04 07:18:59;;;;;;;8.52;2.67;;;24.20;99.90;;;;;;6334999;22;19979;-62
2021/03/04 07:21:29;;;;;;;11.07;2.30;;;24.20;99.90;;;;;;6334587;22;20010;-62
2021/03/04 07:23:57;;;;;;;6.95;1.98;;;24.20;99.90;;;;;;6335141;22;19995;-63
2021/03/04 07:26:24;;;;;;;5.32;1.23;;;24.20;99.90;;;;;;6335244;22;20054;-62
2021/03/04 07:28:53;;;;;;;9.52;1.70;;;24.20;99.90;;;;;;6359881;22;20014;-63
2021/03/04 07:31:20;;;;;;;9.00;1.40;;;24.10;99.90;;;;;;6334577;22;19987;-62
2021/03/04 07:33:51;;;;;;;7.70;1.67;;;24.10;99.90;;;;;;6333543;22;20017;-63
2021/03/04 07:36:23;;;;;;;4.18;1.23;;;24.10;99.90;;;;;;6333682;22;20011;-63
2021/03/04 07:38:56;;;;;;;7.50;1.40;;;24.00;99.90;;;;;;6332019;22;20056;-62
2021/03/04 07:41:41;;;;;;;7.60;1.25;;;23.90;99.90;;;;;;6332586;22;19999;-63
2021/03/04 07:44:10;;;;;;;5.78;1.77;;;23.90;99.90;;;;;;6332138;22;20026;-63
2021/03/04 07:46:50;;;;;;;7.00;2.05;;;23.90;99.90;;;;;;6330162;22;20014;-62
2021/03/04 07:52:25;;;;;;;5.30;1.10;;;23.80;99.90;;;;;;6304545;22;20353;-65
2021/03/04 07:54:54;;;;;;;6.25;1.90;;;23.80;99.90;;;;;;6304772;22;20325;-65
2021/03/04 07:57:23;;;;;;;8.43;1.58;;;23.70;99.90;;;;;;6304902;22;20075;-65
2021/03/04 07:59:59;;;;;;;6.30;1.60;;;23.60;99.90;;;;;;6305288;22;20074;-65
2021/03/04 08:02:34;;;;;;;10.02;2.03;;;23.60;99.90;;;;;;6305474;22;20037;-65
2021/03/04 08:05:33;;;;;;;5.25;1.33;;;23.60;99.90;;;;;;6305015;22;20007;-66
2021/03/04 08:08:11;;;;;;;6.97;1.90;;;23.50;99.90;;;;;;6305566;22;20038;-65
2021/03/04 08:10:54;;;;;;;5.32;1.55;;;23.50;99.90;;;;;;6305860;22;19996;-66
2021/03/04 08:13:40;;;;;;;7.15;1.70;;;23.50;99.90;;;;;;6306000;22;20001;-65
2021/03/04 08:16:14;;;;;;;10.50;1.95;;;23.50;99.90;;;;;;6305546;22;20006;-65
2021/03/04 08:18:43;;;;;;;8.30;1.90;;;23.40;99.90;;;;;;6305291;22;20003;-66
2021/03/04 08:21:10;;;;;;;10.48;2.35;;;23.40;99.90;;;;;;6306730;22;20106;-66
2021/03/04 08:23:45;;;;;;;5.45;1.80;;;23.40;99.90;;;;;;6306055;22;20007;-66
2021/03/04 08:26:26;;;;;;;8.05;1.90;;;23.40;99.90;;;;;;6306529;22;19995;-66
2021/03/04 08:29:11;;;;;;;10.13;1.55;;;23.30;99.90;;;;;;6305224;22;20383;-66
2021/03/04 08:31:48;;;;;;;7.43;1.45;;;23.10;99.90;;;;;;6305871;22;19999;-67
2021/03/04 08:34:15;;;;;;;9.88;2.08;;;23.10;99.90;;;;;;6305346;22;20007;-66
2021/03/04 08:36:45;;;;;;;5.43;1.50;;;23.00;99.90;;;;;;6305871;22;19995;-67
2021/03/04 08:39:13;;;;;;;4.57;1.30;;;23.00;99.90;;;;;;6305781;22;20082;-66
2021/03/04 08:41:41;;;;;;;5.53;1.48;;;22.90;99.90;;;;;;6306208;22;20007;-66
2021/03/04 08:44:14;;;;;;;9.48;2.30;;;22.90;99.90;;;;;;6304574;22;20052;-66
2021/03/04 08:46:48;;;;;;;12.30;2.10;;;22.90;99.90;;;;;;6305608;22;19995;-66
2021/03/04 08:49:16;;;;;;;;;;;22.80;99.90;;;;;;6305324;22;19999;-66
2021/03/04 08:51:44;;;;;;;6.15;1.40;;;22.80;99.90;;;;;;6305626;22;20355;-66
2021/03/04 08:54:25;;;;;;;7.90;1.90;;;22.70;99.90;;;;;;6306283;22;20003;-66
2021/03/04 08:57:03;;;;;;;6.03;1.65;;;22.70;99.90;;;;;;6307699;22;20049;-67
2021/03/04 08:59:30;;;;;;;8.88;2.00;;;22.70;99.90;;;;;;6306836;22;19995;-66
2021/03/04 09:01:59;;;;;;;5.85;1.77;;;22.60;99.90;;;;;;6307937;22;19999;-66
2021/03/04 09:04:27;;;;;;;8.68;2.20;;;22.60;99.90;;;;;;6306110;22;20003;-66
2021/03/04 09:06:55;;;;;;;5.38;1.65;;;22.60;99.90;;;;;;6307656;22;20420;-65
2021/03/04 09:09:26;;;;;;;7.90;2.20;;;22.60;99.90;;;;;;6307158;22;19999;-65
2021/03/04 09:11:55;;;;;;;5.82;1.80;;;22.50;99.90;;;;;;6307836;22;20007;-66
2021/03/04 09:14:33;;;;;;;8.20;1.80;;;22.50;99.90;;;;;;6307381;22;20078;-66
2021/03/04 09:17:02;;;;;;;15.60;2.72;;;22.50;99.90;;;;;;6306928;22;20002;-66
2021/03/04 09:19:35;;;;;;;9.23;2.15;;;22.50;99.90;;;;;;6306529;22;19999;-66
2021/03/04 09:22:09;;;;;;;10.23;3.20;;;22.50;99.90;;;;;;6304584;22;20441;-66
2021/03/04 09:24:38;;;;;;;7.80;1.70;;;22.50;99.90;;;;;;6305810;22;20007;-66
2021/03/04 09:27:07;;;;;;;8.57;1.98;;;22.50;99.90;;;;;;6307520;22;20485;-66
2021/03/04 09:29:39;;;;;;;9.00;2.03;;;22.50;99.90;;;;;;6306398;22;20000;-66
2021/03/04 09:32:07;;;;;;;9.88;2.00;;;22.40;99.90;;;;;;6307229;22;19995;-65
2021/03/04 09:34:39;;;;;;;6.47;1.75;;;22.40;99.90;;;;;;6306639;22;20117;-65
2021/03/04 09:37:31;;;;;;;11.27;2.10;;;22.40;99.90;;;;;;6306826;22;19999;-66
2021/03/04 09:39:59;;;;;;;9.40;2.50;;;22.30;99.90;;;;;;6306368;22;20029;-66
2021/03/04 09:42:36;;;;;;;9.13;2.42;;;22.30;99.90;;;;;;6307385;22;20065;-65
2021/03/04 09:45:11;;;;;;;7.93;2.13;;;22.30;99.90;;;;;;6306067;22;20008;-65
2021/03/04 09:47:45;;;;;;;8.60;2.20;;;22.20;99.90;;;;;;6307272;22;19999;-66
2021/03/04 09:50:24;;;;;;;9.70;1.80;;;22.20;99.90;;;;;;6306356;22;20011;-66
2021/03/04 09:53:04;;;;;;;10.68;1.92;;;22.20;99.90;;;;;;6307141;22;20003;-65
2021/03/04 09:55:46;;;;;;;8.38;1.80;;;22.20;99.90;;;;;;6306801;22;20003;-66
2021/03/04 09:58:20;;;;;;;7.10;2.55;;;22.30;99.90;;;;;;6305394;22;20244;-66
2021/03/04 10:00:55;;;;;;;7.82;2.28;;;22.20;99.90;;;;;;6306063;22;20003;-65
2021/03/04 10:03:30;;;;;;;9.43;3.05;;;22.20;99.90;;;;;;6306425;22;19999;-65
2021/03/04 10:05:58;;;;;;;10.93;2.00;;;22.20;99.90;;;;;;6306752;22;20557;-66
2021/03/04 10:08:25;;;;;;;9.27;2.15;;;22.20;99.90;;;;;;6304593;22;19999;-65
2021/03/04 10:10:52;;;;;;;8.07;1.95;;;22.20;99.90;;;;;;6305552;22;20330;-65
2021/03/04 10:13:31;;;;;;;8.90;1.73;;;22.10;99.90;;;;;;6303148;22;20007;-65
2021/03/04 10:16:13;;;;;;;8.65;1.90;;;22.10;99.90;;;;;;6305684;22;19999;-66
2021/03/04 10:18:46;;;;;;;7.85;2.47;;;22.00;99.90;;;;;;6305338;22;19999;-66
2021/03/04 10:21:18;;;;;;;5.93;2.35;;;22.00;99.90;;;;;;6307090;22;19995;-65
2021/03/04 10:23:49;;;;;;;6.75;1.80;;;22.00;99.90;;;;;;6304752;22;20080;-66
2021/03/04 10:26:17;;;;;;;7.10;1.80;;;21.90;99.90;;;;;;6305381;22;19995;-65
2021/03/04 10:28:44;;;;;;;6.88;1.77;;;21.90;99.90;;;;;;6304929;22;20082;-66
2021/03/04 10:31:11;;;;;;;7.95;1.27;;;22.00;99.90;;;;;;6305064;22;20046;-66
2021/03/04 10:33:38;;;;;;;5.68;1.52;;;21.90;99.90;;;;;;6304368;22;20045;-66
2021/03/04 10:36:06;;;;;;;10.30;2.92;;;22.00;99.90;;;;;;6306390;22;20007;-66
2021/03/04 10:38:33;;;;;;;9.93;2.85;;;21.90;99.90;;;;;;6304514;22;20014;-66
2021/03/04 10:41:00;;;;;;;10.60;1.83;;;21.90;99.90;;;;;;6306176;22;20007;-66
2021/03/04 10:43:28;;;;;;;6.90;2.30;;;21.90;99.90;;;;;;6304143;22;20371;-67
2021/03/04 10:45:55;;;;;;;6.70;1.50;;;21.90;99.90;;;;;;6306747;22;20057;-67
2021/03/04 10:48:22;;;;;;;6.05;1.77;;;21.80;99.90;;;;;;6306101;22;20045;-67
2021/03/04 10:50:50;;;;;;;6.40;1.73;;;21.80;99.90;;;;;;6305963;22;20075;-67
2021/03/04 10:53:17;;;;;;;8.68;1.67;;;21.80;99.90;;;;;;6302675;22;20007;-66
2021/03/04 10:55:44;;;;;;;6.22;1.58;;;21.70;99.90;;;;;;6304683;22;20366;-66
2021/03/04 10:58:11;;;;;;;6.03;1.42;;;21.70;99.90;;;;;;6304372;22;19996;-66
2021/03/04 11:00:41;;;;;;;6.28;1.30;;;21.70;99.90;;;;;;6305769;22;20006;-66
2021/03/04 11:03:08;;;;;;;5.82;1.52;;;21.70;99.90;;;;;;6306808;22;20048;-66
2021/03/04 11:05:35;;;;;;;6.05;1.48;;;21.70;99.90;;;;;;6306409;22;20019;-66
2021/03/04 11:08:03;;;;;;;7.72;1.92;;;21.60;99.90;;;;;;6306529;22;20006;-66
2021/03/04 11:10:30;;;;;;;10.07;1.50;;;21.60;99.90;;;;;;6305738;22;20035;-66
2021/03/04 11:12:57;;;;;;;4.10;1.40;;;21.60;99.90;;;;;;6303300;22;20094;-66
2021/03/04 11:15:25;;;;;;;8.18;1.30;;;21.50;99.90;;;;;;6305080;22;19995;-66
2021/03/04 11:17:52;;;;;;;10.15;1.50;;;21.50;99.90;;;;;;6303719;22;20003;-66
2021/03/04 11:20:19;;;;;;;8.00;1.35;;;21.40;99.90;;;;;;6305954;22;20023;-66
2021/03/04 11:22:47;;;;;;;7.72;1.92;;;21.50;99.90;;;;;;6306490;22;20002;-66
2021/03/04 11:25:14;;;;;;;8.18;1.05;;;21.50;99.90;;;;;;6305738;22;20007;-68
2021/03/04 11:27:42;;;;;;;4.78;1.52;;;21.50;99.90;;;;;;6306138;22;20003;-69
2021/03/04 11:30:10;;;;;;;8.32;1.55;;;21.50;99.90;;;;;;6304750;22;19999;-68
2021/03/04 11:32:37;;;;;;;7.03;1.20;;;21.40;99.90;;;;;;6304499;22;20018;-68
2021/03/04 11:35:05;;;;;;;9.90;1.60;;;21.40;99.90;;;;;;6304645;22;19995;-68
2021/03/04 11:37:32;;;;;;;4.65;1.08;;;21.40;99.90;;;;;;6321742;22;20014;-64
2021/03/04 11:40:00;;;;;;;5.28;1.27;;;21.40;99.90;;;;;;6325230;22;20006;-64
2021/03/04 11:42:27;;;;;;;7.00;1.38;;;21.30;99.90;;;;;;6325405;22;20003;-64
2021/03/04 11:44:55;;;;;;;7.05;1.20;;;21.20;99.90;;;;;;6323656;22;20003;-64
2021/03/04 11:47:23;;;;;;;6.45;1.15;;;21.20;99.90;;;;;;6324169;22;20026;-64
2021/03/04 11:49:51;;;;;;;4.35;0.90;;;21.20;99.90;;;;;;6324756;22;19995;-64
2021/03/04 11:52:19;;;;;;;7.15;1.30;;;21.20;99.90;;;;;;6323716;22;20007;-64
2021/03/04 11:54:47;;;;;;;3.25;0.90;;;21.20;99.90;;;;;;6325219;22;20054;-64
2021/03/04 11:57:14;;;;;;;5.63;1.50;;;21.20;99.90;;;;;;6323896;22;19995;-64
2021/03/04 11:59:41;;;;;;;4.68;1.10;;;21.20;99.90;;;;;;6321441;22;20022;-63
2021/03/04 12:02:09;;;;;;;5.50;1.35;;;21.20;99.90;;;;;;6325344;22;20003;-64
2021/03/04 12:04:36;;;;;;;8.05;1.63;;;21.20;99.90;;;;;;6323448;22;20015;-63
2021/03/04 12:07:03;;;;;;;8.25;1.20;;;21.20;99.90;;;;;;6323967;22;20007;-63
2021/03/04 12:09:30;;;;;;;5.72;1.40;;;21.10;99.90;;;;;;6325198;22;20017;-64
2021/03/04 12:11:58;;;;;;;9.77;1.65;;;21.20;99.90;;;;;;6325251;22;20003;-64
2021/03/04 12:14:25;;;;;;;6.50;1.67;;;21.10;99.90;;;;;;6324418;22;20018;-64
2021/03/04 12:16:52;;;;;;;7.65;1.13;;;21.10;99.90;;;;;;6324416;22;20017;-64
2021/03/04 12:19:20;;;;;;;3.50;1.02;;;21.10;99.90;;;;;;6326253;22;20025;-64
2021/03/04 12:21:47;;;;;;;5.35;1.42;;;21.10;99.90;;;;;;6327057;22;20004;-65
2021/03/04 12:24:14;;;;;;;5.18;1.25;;;21.00;99.90;;;;;;6323965;22;20337;-64
2021/03/04 12:26:42;;;;;;;3.78;0.98;;;21.00;99.90;;;;;;6326387;22;20004;-64
2021/03/04 12:29:09;;;;;;;4.95;1.17;;;21.00;99.90;;;;;;6325619;22;20014;-64
2021/03/04 12:31:37;;;;;;;5.18;1.80;;;21.00;99.90;;;;;;6328640;22;20006;-64
2021/03/04 12:34:04;;;;;;;6.57;1.20;;;20.90;99.90;;;;;;6328770;22;20004;-64
2021/03/04 12:36:32;;;;;;;5.43;1.20;;;20.90;99.90;;;;;;6328970;22;20030;-64
2021/03/04 12:39:00;;;;;;;6.20;1.58;;;21.00;99.90;;;;;;6328307;22;20009;-64
2021/03/04 12:41:27;;;;;;;7.97;1.83;;;20.90;99.90;;;;;;6327885;22;19995;-64
2021/03/04 12:43:54;;;;;;;5.53;1.33;;;20.90;99.90;;;;;;6327990;22;20007;-64
2021/03/04 12:46:22;;;;;;;6.25;1.38;;;20.90;99.90;;;;;;6328449;22;20333;-64
2021/03/04 12:48:50;;;;;;;6.82;1.52;;;20.90;99.90;;;;;;6324470;22;20022;-64
2021/03/04 12:51:17;;;;;;;5.47;1.42;;;20.90;99.90;;;;;;6322454;22;20008;-64
2021/03/04 12:53:44;;;;;;;5.15;1.35;;;21.00;99.90;;;;;;6325532;22;20007;-64
2021/03/04 12:56:11;;;;;;;5.68;1.55;;;21.00;99.90;;;;;;6329160;22;20058;-64
2021/03/04 12:58:39;;;;;;;6.18;1.13;;;21.10;99.90;;;;;;6326030;22;20070;-64
2021/03/04 13:01:06;;;;;;;4.90;1.48;;;21.00;99.90;;;;;;6325827;22;19999;-64